sensor_id;sensor_type;location;lat;lon;timestamp;pressure;altitude;pressure_sealevel;temperature;humidity
82728;BME280;72459;50.110;8.750;2023-09-19T00:02:12;100010.31;;;16.88;79.22
82728;BME280;72459;50.110;8.750;2023-09-19T00:04:37;100013.84;;;16.86;78.97
82728;BME280;72459;50.110;8.750;2023-09-19T00:07:05;100017.38;;;16.85;78.15
82728;BME280;72459;50.110;8.750;2023-09-19T00:09:30;100022.69;;;16.85;78.28
82728;BME280;72459;50.110;8.750;2023-09-19T00:12:02;100016.50;;;16.84;78.59
82728;BME280;72459;50.110;8.750;2023-09-19T00:14:28;100020.91;;;16.80;76.21
82728;BME280;72459;50.110;8.750;2023-09-19T00:16:53;100027.09;;;16.83;79.49
82728;BME280;72459;50.110;8.750;2023-09-19T00:19:20;100026.22;;;16.84;76.06
82728;BME280;72459;50.110;8.750;2023-09-19T00:21:45;100027.13;;;16.86;79.06
82728;BME280;72459;50.110;8.750;2023-09-19T00:24:12;100028.88;;;16.84;78.87
82728;BME280;72459;50.110;8.750;2023-09-19T00:26:39;100032.44;;;16.87;79.62
82728;BME280;72459;50.110;8.750;2023-09-19T00:29:04;100026.31;;;16.91;76.83
82728;BME280;72459;50.110;8.750;2023-09-19T00:31:34;100024.53;;;16.92;77.02
82728;BME280;72459;50.110;8.750;2023-09-19T00:33:59;100025.44;;;16.95;79.10
82728;BME280;72459;50.110;8.750;2023-09-19T00:36:31;100021.84;;;16.90;78.67
82728;BME280;72459;50.110;8.750;2023-09-19T00:38:58;100028.09;;;16.97;77.98
82728;BME280;72459;50.110;8.750;2023-09-19T00:41:24;100024.56;;;17.01;78.13
82728;BME280;72459;50.110;8.750;2023-09-19T00:43:50;100026.38;;;17.03;76.28
82728;BME280;72459;50.110;8.750;2023-09-19T00:46:18;100033.44;;;17.00;78.20
82728;BME280;72459;50.110;8.750;2023-09-19T00:48:44;100029.88;;;17.01;76.61
82728;BME280;72459;50.110;8.750;2023-09-19T00:51:10;100026.31;;;16.93;77.62
82728;BME280;72459;50.110;8.750;2023-09-19T00:53:36;100032.50;;;16.93;78.71
82728;BME280;72459;50.110;8.750;2023-09-19T00:56:03;100034.22;;;16.90;77.82
82728;BME280;72459;50.110;8.750;2023-09-19T00:58:33;100035.16;;;16.92;76.88
82728;BME280;72459;50.110;8.750;2023-09-19T01:01:01;100042.25;;;16.93;78.39
82728;BME280;72459;50.110;8.750;2023-09-19T01:03:27;100036.06;;;16.97;76.87
82728;BME280;72459;50.110;8.750;2023-09-19T01:05:54;100047.50;;;16.90;78.38
82728;BME280;72459;50.110;8.750;2023-09-19T01:08:19;100047.50;;;16.90;77.20
82728;BME280;72459;50.110;8.750;2023-09-19T01:10:52;100047.47;;;16.87;78.16
82728;BME280;72459;50.110;8.750;2023-09-19T01:16:29;100052.88;;;16.99;77.26
82728;BME280;72459;50.110;8.750;2023-09-19T01:22:16;100067.03;;;16.93;76.75
82728;BME280;72459;50.110;8.750;2023-09-19T01:27:40;100078.56;;;17.01;76.57
82728;BME280;72459;50.110;8.750;2023-09-19T01:30:18;100086.56;;;17.09;74.81
82728;BME280;72459;50.110;8.750;2023-09-19T01:32:49;100081.25;;;17.09;74.80
82728;BME280;72459;50.110;8.750;2023-09-19T01:35:17;100097.19;;;17.07;75.75
82728;BME280;72459;50.110;8.750;2023-09-19T01:37:43;100100.69;;;17.02;75.75
82728;BME280;72459;50.110;8.750;2023-09-19T01:40:14;100102.50;;;17.09;75.28
82728;BME280;72459;50.110;8.750;2023-09-19T01:42:54;100111.38;;;17.09;76.38
82728;BME280;72459;50.110;8.750;2023-09-19T01:51:20;100112.25;;;17.11;75.65
82728;BME280;72459;50.110;8.750;2023-09-19T01:53:51;100114.88;;;17.07;76.00
82728;BME280;72459;50.110;8.750;2023-09-19T01:56:46;100113.06;;;17.00;76.48
82728;BME280;72459;50.110;8.750;2023-09-19T01:59:20;100121.94;;;17.00;79.01
82728;BME280;72459;50.110;8.750;2023-09-19T02:01:48;100114.84;;;16.99;75.07
82728;BME280;72459;50.110;8.750;2023-09-19T02:04:14;100118.41;;;17.03;77.51
82728;BME280;72459;50.110;8.750;2023-09-19T02:06:40;100132.50;;;16.93;75.40
82728;BME280;72459;50.110;8.750;2023-09-19T02:09:06;100124.53;;;16.93;75.94
82728;BME280;72459;50.110;8.750;2023-09-19T02:11:32;100128.88;;;16.86;75.31
82728;BME280;72459;50.110;8.750;2023-09-19T02:13:57;100131.50;;;16.82;75.66
82728;BME280;72459;50.110;8.750;2023-09-19T02:16:24;100129.72;;;16.80;75.79
82728;BME280;72459;50.110;8.750;2023-09-19T02:18:50;100140.31;;;16.76;75.91
82728;BME280;72459;50.110;8.750;2023-09-19T02:21:16;100141.22;;;16.79;75.94
82728;BME280;72459;50.110;8.750;2023-09-19T02:23:45;100143.00;;;16.80;77.19
82728;BME280;72459;50.110;8.750;2023-09-19T02:26:12;100148.28;;;16.76;77.34
82728;BME280;72459;50.110;8.750;2023-09-19T02:28:39;100145.56;;;16.71;76.63
82728;BME280;72459;50.110;8.750;2023-09-19T02:31:04;100153.53;;;16.70;75.92
82728;BME280;72459;50.110;8.750;2023-09-19T02:33:32;100154.28;;;16.58;77.06
82728;BME280;72459;50.110;8.750;2023-09-19T02:36:04;100157.78;;;16.56;78.61
82728;BME280;72459;50.110;8.750;2023-09-19T02:38:29;100146.28;;;16.52;77.29
82728;BME280;72459;50.110;8.750;2023-09-19T02:40:55;100150.63;;;16.45;76.16
82728;BME280;72459;50.110;8.750;2023-09-19T02:43:21;100151.47;;;16.40;77.69
82728;BME280;72459;50.110;8.750;2023-09-19T02:45:47;100159.41;;;16.38;76.25
82728;BME280;72459;50.110;8.750;2023-09-19T02:48:15;100162.91;;;16.36;77.72
82728;BME280;72459;50.110;8.750;2023-09-19T02:50:41;100162.91;;;16.34;76.88
82728;BME280;72459;50.110;8.750;2023-09-19T02:53:07;100159.31;;;16.29;76.03
82728;BME280;72459;50.110;8.750;2023-09-19T02:55:32;100160.19;;;16.28;76.79
82728;BME280;72459;50.110;8.750;2023-09-19T02:57:59;100161.88;;;16.22;76.31
82728;BME280;72459;50.110;8.750;2023-09-19T03:00:25;100160.13;;;16.24;77.02
82728;BME280;72459;50.110;8.750;2023-09-19T03:02:57;100156.50;;;16.15;76.59
82728;BME280;72459;50.110;8.750;2023-09-19T03:05:23;100159.13;;;16.12;77.57
82728;BME280;72459;50.110;8.750;2023-09-19T03:07:50;100165.31;;;16.14;76.99
82728;BME280;72459;50.110;8.750;2023-09-19T03:10:19;100159.97;;;16.08;77.06
82728;BME280;72459;50.110;8.750;2023-09-19T03:12:51;100163.44;;;16.04;77.66
82728;BME280;72459;50.110;8.750;2023-09-19T03:15:17;100174.06;;;16.04;77.35
82728;BME280;72459;50.110;8.750;2023-09-19T03:17:47;100166.06;;;16.03;76.75
82728;BME280;72459;50.110;8.750;2023-09-19T03:20:13;100166.13;;;16.06;76.62
82728;BME280;72459;50.110;8.750;2023-09-19T03:22:39;100172.25;;;16.00;79.28
82728;BME280;72459;50.110;8.750;2023-09-19T03:25:06;100181.09;;;16.02;79.69
82728;BME280;72459;50.110;8.750;2023-09-19T03:27:33;100188.16;;;16.00;80.17
82728;BME280;72459;50.110;8.750;2023-09-19T03:29:58;100183.66;;;15.95;78.03
82728;BME280;72459;50.110;8.750;2023-09-19T03:32:24;100179.25;;;15.95;79.85
82728;BME280;72459;50.110;8.750;2023-09-19T03:34:49;100178.31;;;15.92;79.88
82728;BME280;72459;50.110;8.750;2023-09-19T03:37:15;100175.63;;;15.89;78.09
82728;BME280;72459;50.110;8.750;2023-09-19T03:39:42;100165.00;;;15.85;76.90
82728;BME280;72459;50.110;8.750;2023-09-19T03:42:08;100172.06;;;15.85;77.78
82728;BME280;72459;50.110;8.750;2023-09-19T03:44:33;100178.22;;;15.84;79.46
82728;BME280;72459;50.110;8.750;2023-09-19T03:46:58;100178.22;;;15.82;77.54
82728;BME280;72459;50.110;8.750;2023-09-19T03:49:24;100174.63;;;15.79;79.65
82728;BME280;72459;50.110;8.750;2023-09-19T03:51:49;100179.03;;;15.78;77.61
82728;BME280;72459;50.110;8.750;2023-09-19T03:54:15;100179.03;;;15.77;77.64
82728;BME280;72459;50.110;8.750;2023-09-19T03:56:42;100179.91;;;15.76;76.95
82728;BME280;72459;50.110;8.750;2023-09-19T03:59:09;100175.44;;;15.73;78.78
82728;BME280;72459;50.110;8.750;2023-09-19T04:01:34;100182.50;;;15.73;79.33
82728;BME280;72459;50.110;8.750;2023-09-19T04:04:00;100181.63;;;15.72;77.42
82728;BME280;72459;50.110;8.750;2023-09-19T04:06:36;100171.88;;;15.70;76.96
82728;BME280;72459;50.110;8.750;2023-09-19T04:09:04;100177.13;;;15.67;78.62
82728;BME280;72459;50.110;8.750;2023-09-19T04:11:32;100185.94;;;15.66;78.51
82728;BME280;72459;50.110;8.750;2023-09-19T04:13:58;100185.03;;;15.62;77.61
82728;BME280;72459;50.110;8.750;2023-09-19T04:16:24;100189.50;;;15.66;78.94
82728;BME280;72459;50.110;8.750;2023-09-19T04:18:49;100193.91;;;15.66;78.76
82728;BME280;72459;50.110;8.750;2023-09-19T04:21:15;100193.72;;;15.57;79.38
82728;BME280;72459;50.110;8.750;2023-09-19T04:23:41;100202.69;;;15.63;76.92
82728;BME280;72459;50.110;8.750;2023-09-19T04:26:06;100206.28;;;15.67;76.85
82728;BME280;72459;50.110;8.750;2023-09-19T04:28:32;100209.00;;;15.71;78.06
82728;BME280;72459;50.110;8.750;2023-09-19T04:30:59;100224.06;;;15.75;77.04
82728;BME280;72459;50.110;8.750;2023-09-19T04:33:25;100218.84;;;15.83;75.96
82728;BME280;72459;50.110;8.750;2023-09-19T04:35:52;100221.53;;;15.86;75.61
82728;BME280;72459;50.110;8.750;2023-09-19T04:38:18;100219.88;;;15.94;76.61
82728;BME280;72459;50.110;8.750;2023-09-19T04:40:45;100220.75;;;15.93;76.07
82728;BME280;72459;50.110;8.750;2023-09-19T04:43:10;100218.19;;;15.99;75.82
82728;BME280;72459;50.110;8.750;2023-09-19T04:45:35;100225.28;;;16.03;76.53
82728;BME280;72459;50.110;8.750;2023-09-19T04:48:03;100227.88;;;15.99;75.48
82728;BME280;72459;50.110;8.750;2023-09-19T04:50:28;100231.38;;;15.95;75.67
82728;BME280;72459;50.110;8.750;2023-09-19T04:52:54;100231.38;;;15.95;75.11
82728;BME280;72459;50.110;8.750;2023-09-19T04:55:20;100231.34;;;15.93;74.54
82728;BME280;72459;50.110;8.750;2023-09-19T04:57:48;100233.94;;;15.87;75.46
82728;BME280;72459;50.110;8.750;2023-09-19T05:00:16;100236.47;;;15.79;75.26
82728;BME280;72459;50.110;8.750;2023-09-19T05:02:43;100232.03;;;15.77;73.89
82728;BME280;72459;50.110;8.750;2023-09-19T05:05:09;100239.03;;;15.72;74.92
82728;BME280;72459;50.110;8.750;2023-09-19T05:07:41;100241.63;;;15.67;76.69
82728;BME280;72459;50.110;8.750;2023-09-19T05:10:07;100239.84;;;15.66;75.55
82728;BME280;72459;50.110;8.750;2023-09-19T05:12:34;100240.72;;;15.67;75.54
82728;BME280;72459;50.110;8.750;2023-09-19T05:15:01;100244.19;;;15.63;74.47
82728;BME280;72459;50.110;8.750;2023-09-19T05:17:27;100250.38;;;15.63;75.01
82728;BME280;72459;50.110;8.750;2023-09-19T05:19:52;100245.06;;;15.62;74.29
82728;BME280;72459;50.110;8.750;2023-09-19T05:22:18;100243.38;;;15.67;74.82
82728;BME280;72459;50.110;8.750;2023-09-19T05:24:44;100250.44;;;15.66;74.45
82728;BME280;72459;50.110;8.750;2023-09-19T05:27:14;100256.63;;;15.67;75.79
82728;BME280;72459;50.110;8.750;2023-09-19T05:29:43;100246.06;;;15.70;75.85
82728;BME280;72459;50.110;8.750;2023-09-19T05:32:09;100244.25;;;15.66;77.49
82728;BME280;72459;50.110;8.750;2023-09-19T05:34:36;100241.63;;;15.69;76.77
82728;BME280;72459;50.110;8.750;2023-09-19T05:37:01;100246.94;;;15.69;77.25
82728;BME280;72459;50.110;8.750;2023-09-19T05:39:26;100254.00;;;15.68;77.68
82728;BME280;72459;50.110;8.750;2023-09-19T05:41:52;100254.00;;;15.70;75.67
82728;BME280;72459;50.110;8.750;2023-09-19T05:44:18;100258.53;;;15.77;76.87
82728;BME280;72459;50.110;8.750;2023-09-19T05:46:44;100256.69;;;15.73;75.83
82728;BME280;72459;50.110;8.750;2023-09-19T05:49:11;100261.19;;;15.77;76.27
82728;BME280;72459;50.110;8.750;2023-09-19T05:51:36;100270.00;;;15.76;75.84
82728;BME280;72459;50.110;8.750;2023-09-19T05:54:02;100271.00;;;15.84;75.53
82728;BME280;72459;50.110;8.750;2023-09-19T05:56:28;100271.91;;;15.88;75.16
82728;BME280;72459;50.110;8.750;2023-09-19T05:58:53;100273.75;;;15.92;74.92
82728;BME280;72459;50.110;8.750;2023-09-19T06:01:19;100278.22;;;15.97;73.38
82728;BME280;72459;50.110;8.750;2023-09-19T06:03:45;100280.91;;;15.99;73.97
82728;BME280;72459;50.110;8.750;2023-09-19T06:06:10;100286.28;;;16.05;73.46
82728;BME280;72459;50.110;8.750;2023-09-19T06:08:39;100289.81;;;16.05;73.67
82728;BME280;72459;50.110;8.750;2023-09-19T06:11:05;100296.09;;;16.10;73.26
82728;BME280;72459;50.110;8.750;2023-09-19T06:13:34;100296.16;;;16.16;74.58
82728;BME280;72459;50.110;8.750;2023-09-19T06:16:03;100293.50;;;16.15;72.81
82728;BME280;72459;50.110;8.750;2023-09-19T06:18:31;100290.03;;;16.22;73.62
82728;BME280;72459;50.110;8.750;2023-09-19T06:20:59;100293.66;;;16.27;73.35
82728;BME280;72459;50.110;8.750;2023-09-19T06:23:25;100297.38;;;16.41;73.58
82728;BME280;72459;50.110;8.750;2023-09-19T06:25:54;100300.91;;;16.42;73.42
82728;BME280;72459;50.110;8.750;2023-09-19T06:28:19;100296.44;;;16.38;73.41
82728;BME280;72459;50.110;8.750;2023-09-19T06:30:50;100303.69;;;16.51;72.83
82728;BME280;72459;50.110;8.750;2023-09-19T06:33:18;100305.34;;;16.43;73.04
82728;BME280;72459;50.110;8.750;2023-09-19T06:35:48;100309.88;;;16.52;73.23
82728;BME280;72459;50.110;8.750;2023-09-19T06:38:14;100309.03;;;16.54;73.14
82728;BME280;72459;50.110;8.750;2023-09-19T06:40:41;100321.47;;;16.61;72.39
82728;BME280;72459;50.110;8.750;2023-09-19T06:43:09;100318.03;;;16.65;73.10
82728;BME280;72459;50.110;8.750;2023-09-19T06:45:35;100318.06;;;16.70;73.55
82728;BME280;72459;50.110;8.750;2023-09-19T06:48:00;100327.94;;;16.83;73.21
82728;BME280;72459;50.110;8.750;2023-09-19T06:50:27;100328.81;;;16.82;72.55
82728;BME280;72459;50.110;8.750;2023-09-19T06:52:54;100338.78;;;17.03;72.52
82728;BME280;72459;50.110;8.750;2023-09-19T06:55:21;100336.13;;;17.03;71.75
82728;BME280;72459;50.110;8.750;2023-09-19T06:57:49;100339.75;;;17.11;71.53
82728;BME280;72459;50.110;8.750;2023-09-19T07:00:15;100346.03;;;17.21;71.45
82728;BME280;72459;50.110;8.750;2023-09-19T07:03:01;100346.94;;;17.21;71.17
82728;BME280;72459;50.110;8.750;2023-09-19T07:05:30;100353.22;;;17.32;71.04
82728;BME280;72459;50.110;8.750;2023-09-19T07:07:56;100357.81;;;17.52;71.04
82728;BME280;72459;50.110;8.750;2023-09-19T07:10:24;100365.13;;;17.69;70.66
82728;BME280;72459;50.110;8.750;2023-09-19T07:13:03;100374.06;;;17.82;67.94
82728;BME280;72459;50.110;8.750;2023-09-19T07:15:30;100374.06;;;17.79;68.69
82728;BME280;72459;50.110;8.750;2023-09-19T07:17:58;100369.47;;;17.64;67.39
82728;BME280;72459;50.110;8.750;2023-09-19T07:20:26;100374.00;;;17.74;67.69
82728;BME280;72459;50.110;8.750;2023-09-19T07:22:52;100386.38;;;17.68;66.82
82728;BME280;72459;50.110;8.750;2023-09-19T07:25:21;100396.16;;;17.73;67.30
82728;BME280;72459;50.110;8.750;2023-09-19T07:27:46;100406.88;;;17.83;65.58
82728;BME280;72459;50.110;8.750;2023-09-19T07:30:12;100396.00;;;17.58;67.31
82728;BME280;72459;50.110;8.750;2023-09-19T07:32:38;100404.88;;;17.62;65.99
82728;BME280;72459;50.110;8.750;2023-09-19T07:35:06;100408.66;;;17.84;66.67
82728;BME280;72459;50.110;8.750;2023-09-19T07:37:32;100414.88;;;17.89;65.29
82728;BME280;72459;50.110;8.750;2023-09-19T07:40:04;100423.91;;;18.09;65.36
82728;BME280;72459;50.110;8.750;2023-09-19T07:42:38;100422.09;;;18.03;66.25
82728;BME280;72459;50.110;8.750;2023-09-19T07:45:06;100428.06;;;17.72;65.21
82728;BME280;72459;50.110;8.750;2023-09-19T07:47:49;100435.25;;;17.87;65.78
82728;BME280;72459;50.110;8.750;2023-09-19T07:50:18;100427.25;;;17.82;65.55
82728;BME280;72459;50.110;8.750;2023-09-19T07:52:45;100430.72;;;17.72;65.09
82728;BME280;72459;50.110;8.750;2023-09-19T07:55:11;100431.88;;;18.11;65.75
82728;BME280;72459;50.110;8.750;2023-09-19T07:57:41;100429.25;;;18.14;65.95
82728;BME280;72459;50.110;8.750;2023-09-19T08:00:07;100432.78;;;18.14;65.44
82728;BME280;72459;50.110;8.750;2023-09-19T08:02:35;100435.56;;;18.28;66.05
82728;BME280;72459;50.110;8.750;2023-09-19T08:05:00;100428.59;;;18.45;64.56
82728;BME280;72459;50.110;8.750;2023-09-19T08:07:26;100440.81;;;18.19;65.43
82728;BME280;72459;50.110;8.750;2023-09-19T08:09:51;100437.34;;;18.27;65.44
82728;BME280;72459;50.110;8.750;2023-09-19T08:12:17;100448.88;;;18.25;64.34
82728;BME280;72459;50.110;8.750;2023-09-19T08:14:42;100440.72;;;18.06;63.63
82728;BME280;72459;50.110;8.750;2023-09-19T08:17:08;100438.88;;;17.98;62.25
82728;BME280;72459;50.110;8.750;2023-09-19T08:19:35;100442.66;;;18.27;64.05
82728;BME280;72459;50.110;8.750;2023-09-19T08:22:05;100435.63;;;18.35;63.02
82728;BME280;72459;50.110;8.750;2023-09-19T08:24:31;100438.50;;;18.72;64.18
82728;BME280;72459;50.110;8.750;2023-09-19T08:26:58;100430.34;;;18.45;62.62
82728;BME280;72459;50.110;8.750;2023-09-19T08:29:24;100442.91;;;18.64;60.46
82728;BME280;72459;50.110;8.750;2023-09-19T08:31:56;100450.03;;;18.68;62.83
82728;BME280;72459;50.110;8.750;2023-09-19T08:34:23;100443.94;;;18.92;62.83
82728;BME280;72459;50.110;8.750;2023-09-19T08:36:52;100442.28;;;19.37;61.38
82728;BME280;72459;50.110;8.750;2023-09-19T08:39:21;100444.06;;;19.38;59.03
82728;BME280;72459;50.110;8.750;2023-09-19T08:41:47;100444.94;;;19.20;56.62
82728;BME280;72459;50.110;8.750;2023-09-19T08:44:12;100443.19;;;19.40;60.13
82728;BME280;72459;50.110;8.750;2023-09-19T08:46:41;100444.97;;;19.35;58.40
82728;BME280;72459;50.110;8.750;2023-09-19T08:52:01;100446.84;;;19.65;57.20
82728;BME280;72459;50.110;8.750;2023-09-19T08:54:37;100454.84;;;19.57;53.55
82728;BME280;72459;50.110;8.750;2023-09-19T08:57:07;100439.72;;;19.72;56.06
82728;BME280;72459;50.110;8.750;2023-09-19T08:59:38;100446.75;;;19.48;55.80
82728;BME280;72459;50.110;8.750;2023-09-19T09:02:11;100452.16;;;19.54;54.95
82728;BME280;72459;50.110;8.750;2023-09-19T09:04:39;100453.06;;;19.91;54.62
82728;BME280;72459;50.110;8.750;2023-09-19T09:07:15;100454.84;;;19.65;52.87
82728;BME280;72459;50.110;8.750;2023-09-19T09:09:42;100452.19;;;19.88;54.96
82728;BME280;72459;50.110;8.750;2023-09-19T09:12:13;100457.50;;;20.05;56.16
82728;BME280;72459;50.110;8.750;2023-09-19T09:14:45;100453.06;;;20.07;56.42
82728;BME280;72459;50.110;8.750;2023-09-19T09:17:15;100456.63;;;20.27;54.90
82728;BME280;72459;50.110;8.750;2023-09-19T09:19:46;100466.41;;;20.31;55.12
82728;BME280;72459;50.110;8.750;2023-09-19T09:22:12;100460.19;;;20.32;52.21
82728;BME280;72459;50.110;8.750;2023-09-19T09:24:51;100459.28;;;19.78;49.88
82728;BME280;72459;50.110;8.750;2023-09-19T09:27:20;100462.84;;;19.97;51.67
82728;BME280;72459;50.110;8.750;2023-09-19T09:29:47;100459.28;;;20.12;49.16
82728;BME280;72459;50.110;8.750;2023-09-19T09:32:18;100457.50;;;20.53;51.33
82728;BME280;72459;50.110;8.750;2023-09-19T09:34:49;100452.19;;;20.23;52.63
82728;BME280;72459;50.110;8.750;2023-09-19T09:37:16;100456.63;;;20.09;51.39
82728;BME280;72459;50.110;8.750;2023-09-19T09:39:56;100461.97;;;19.90;51.64
82728;BME280;72459;50.110;8.750;2023-09-19T09:42:36;100459.31;;;20.25;53.10
82728;BME280;72459;50.110;8.750;2023-09-19T09:45:20;100465.53;;;20.44;52.15
82728;BME280;72459;50.110;8.750;2023-09-19T09:47:54;100457.50;;;20.38;51.13
82728;BME280;72459;50.110;8.750;2023-09-19T09:50:36;100466.41;;;20.30;52.22
82728;BME280;72459;50.110;8.750;2023-09-19T09:53:29;100468.22;;;20.18;51.62
82728;BME280;72459;50.110;8.750;2023-09-19T09:56:07;100461.94;;;20.15;50.54
82728;BME280;72459;50.110;8.750;2023-09-19T09:58:37;100465.53;;;20.41;51.93
82728;BME280;72459;50.110;8.750;2023-09-19T10:01:04;100468.19;;;20.50;48.32
82728;BME280;72459;50.110;8.750;2023-09-19T10:03:40;100455.72;;;20.39;52.28
82728;BME280;72459;50.110;8.750;2023-09-19T10:06:15;100470.84;;;20.35;50.83
82728;BME280;72459;50.110;8.750;2023-09-19T10:09:05;100474.44;;;20.40;49.51
82728;BME280;72459;50.110;8.750;2023-09-19T10:11:41;100479.78;;;20.22;48.68
82728;BME280;72459;50.110;8.750;2023-09-19T10:14:09;100467.31;;;20.47;51.02
82728;BME280;72459;50.110;8.750;2023-09-19T10:16:40;100462.81;;;20.66;49.22
82728;BME280;72459;50.110;8.750;2023-09-19T10:19:07;100460.13;;;20.66;50.24
82728;BME280;72459;50.110;8.750;2023-09-19T10:21:35;100468.97;;;20.80;50.29
82728;BME280;72459;50.110;8.750;2023-09-19T10:24:01;100460.19;;;20.44;48.54
82728;BME280;72459;50.110;8.750;2023-09-19T10:26:34;100467.31;;;20.24;49.87
82728;BME280;72459;50.110;8.750;2023-09-19T10:29:01;100462.84;;;20.53;49.27
82728;BME280;72459;50.110;8.750;2023-09-19T10:31:29;100466.34;;;20.69;49.00
82728;BME280;72459;50.110;8.750;2023-09-19T10:34:02;100476.13;;;20.72;49.78
82728;BME280;72459;50.110;8.750;2023-09-19T10:36:32;100472.56;;;20.76;48.79
82728;BME280;72459;50.110;8.750;2023-09-19T10:39:02;100470.84;;;20.38;46.86
82728;BME280;72459;50.110;8.750;2023-09-19T10:41:32;100470.84;;;19.99;47.84
82728;BME280;72459;50.110;8.750;2023-09-19T10:44:03;100464.63;;;20.45;50.47
82728;BME280;72459;50.110;8.750;2023-09-19T10:46:31;100473.50;;;20.38;49.71
82728;BME280;72459;50.110;8.750;2023-09-19T10:49:01;100464.63;;;20.29;49.57
82728;BME280;72459;50.110;8.750;2023-09-19T10:51:31;100463.69;;;20.65;47.41
82728;BME280;72459;50.110;8.750;2023-09-19T10:54:17;100460.09;;;20.75;46.55
82728;BME280;72459;50.110;8.750;2023-09-19T10:56:50;100469.81;;;21.05;49.05
82728;BME280;72459;50.110;8.750;2023-09-19T10:59:18;100469.75;;;21.23;47.70
82728;BME280;72459;50.110;8.750;2023-09-19T11:01:48;100479.63;;;21.01;44.47
82728;BME280;72459;50.110;8.750;2023-09-19T11:04:36;100467.94;;;21.30;45.38
82728;BME280;72459;50.110;8.750;2023-09-19T11:18:01;100466.84;;;25.44;42.87
82728;BME280;72459;50.110;8.750;2023-09-19T11:20:47;100447.25;;;28.25;38.04
82728;BME280;72459;50.110;8.750;2023-09-19T11:23:20;100440.69;;;28.84;35.88
82728;BME280;72459;50.110;8.750;2023-09-19T11:25:47;100434.34;;;28.33;31.60
82728;BME280;72459;50.110;8.750;2023-09-19T11:30:40;100435.88;;;27.88;37.30
82728;BME280;72459;50.110;8.750;2023-09-19T11:33:15;100428.94;;;28.33;37.26
82728;BME280;72459;50.110;8.750;2023-09-19T11:41:37;100428.44;;;31.69;26.74
82728;BME280;72459;50.110;8.750;2023-09-19T11:49:16;100414.56;;;29.96;28.20
82728;BME280;72459;50.110;8.750;2023-09-19T11:51:46;100415.84;;;31.10;32.73
82728;BME280;72459;50.110;8.750;2023-09-19T11:54:14;100412.78;;;31.74;33.50
82728;BME280;72459;50.110;8.750;2023-09-19T11:56:44;100407.13;;;32.32;31.57
82728;BME280;72459;50.110;8.750;2023-09-19T11:59:11;100407.84;;;31.27;25.61
82728;BME280;72459;50.110;8.750;2023-09-19T12:01:38;100419.56;;;30.27;28.39
82728;BME280;72459;50.110;8.750;2023-09-19T12:04:11;100424.69;;;29.48;27.76
82728;BME280;72459;50.110;8.750;2023-09-19T12:06:36;100420.22;;;32.24;29.94
82728;BME280;72459;50.110;8.750;2023-09-19T12:09:04;100423.38;;;31.80;27.81
82728;BME280;72459;50.110;8.750;2023-09-19T12:11:32;100416.78;;;32.89;27.94
82728;BME280;72459;50.110;8.750;2023-09-19T12:13:58;100431.03;;;32.08;24.00
82728;BME280;72459;50.110;8.750;2023-09-19T12:16:26;100417.94;;;32.33;23.75
82728;BME280;72459;50.110;8.750;2023-09-19T12:18:55;100414.22;;;32.17;28.87
82728;BME280;72459;50.110;8.750;2023-09-19T12:21:29;100420.16;;;31.72;25.46
82728;BME280;72459;50.110;8.750;2023-09-19T12:24:06;100426.09;;;32.51;25.38
82728;BME280;72459;50.110;8.750;2023-09-19T12:26:39;100403.91;;;31.89;28.33
82728;BME280;72459;50.110;8.750;2023-09-19T12:29:11;100403.63;;;32.97;26.15
82728;BME280;72459;50.110;8.750;2023-09-19T12:31:50;100398.09;;;33.95;27.74
82728;BME280;72459;50.110;8.750;2023-09-19T12:34:20;100407.50;;;32.07;25.36
82728;BME280;72459;50.110;8.750;2023-09-19T12:36:46;100390.72;;;32.68;23.65
82728;BME280;72459;50.110;8.750;2023-09-19T12:39:22;100400.88;;;32.12;23.80
82728;BME280;72459;50.110;8.750;2023-09-19T12:41:49;100390.88;;;33.47;23.46
82728;BME280;72459;50.110;8.750;2023-09-19T12:44:16;100389.56;;;35.18;26.21
82728;BME280;72459;50.110;8.750;2023-09-19T12:46:43;100386.00;;;35.71;22.13
82728;BME280;72459;50.110;8.750;2023-09-19T12:49:19;100392.00;;;33.58;25.44
82728;BME280;72459;50.110;8.750;2023-09-19T12:51:46;100401.34;;;33.05;23.14
82728;BME280;72459;50.110;8.750;2023-09-19T12:54:12;100380.38;;;35.05;26.56
82728;BME280;72459;50.110;8.750;2023-09-19T12:56:41;100378.16;;;34.39;25.14
82728;BME280;72459;50.110;8.750;2023-09-19T12:59:12;100373.31;;;34.72;19.01
82728;BME280;72459;50.110;8.750;2023-09-19T13:01:39;100373.91;;;34.63;26.02
82728;BME280;72459;50.110;8.750;2023-09-19T13:04:20;100368.31;;;32.63;25.74
82728;BME280;72459;50.110;8.750;2023-09-19T13:06:55;100369.50;;;32.05;25.98
82728;BME280;72459;50.110;8.750;2023-09-19T13:09:26;100367.31;;;31.23;27.14
82728;BME280;72459;50.110;8.750;2023-09-19T13:12:00;100355.84;;;31.90;23.88
82728;BME280;72459;50.110;8.750;2023-09-19T13:14:28;100379.44;;;30.95;26.02
82728;BME280;72459;50.110;8.750;2023-09-19T13:19:57;100380.63;;;28.97;28.99
82728;BME280;72459;50.110;8.750;2023-09-19T13:22:42;100381.94;;;28.37;28.36
82728;BME280;72459;50.110;8.750;2023-09-19T13:25:13;100366.38;;;27.66;29.98
82728;BME280;72459;50.110;8.750;2023-09-19T13:27:42;100382.38;;;27.44;30.57
82728;BME280;72459;50.110;8.750;2023-09-19T13:30:08;100379.88;;;27.38;28.21
82728;BME280;72459;50.110;8.750;2023-09-19T13:32:34;100374.44;;;26.16;29.35
82728;BME280;72459;50.110;8.750;2023-09-19T13:34:59;100367.97;;;25.13;32.28
82728;BME280;72459;50.110;8.750;2023-09-19T13:37:24;100366.44;;;25.02;31.46
82728;BME280;72459;50.110;8.750;2023-09-19T13:39:51;100363.69;;;25.05;34.18
82728;BME280;72459;50.110;8.750;2023-09-19T13:42:17;100365.94;;;24.83;33.54
82728;BME280;72459;50.110;8.750;2023-09-19T13:44:43;100378.44;;;24.41;33.63